ジョン・F・ケネディ国際空港の過去48時間の天気

ジョン・F・ケネディ国際空港 (New York, Kennedy International Airport)

現在時刻: 7/21 20:51 EDT (7/22 00:51 UTC) 以下の時間は現地時間です。

過去48時間のMETAR気象情報
時間 風向 風速(m/s) 視程 気温(℃) 湿度(%) 気圧(hPa) 天気現象
21 19:51 西 6 10km以上 32.2 47 1011
21 18:51 南西 7 10km以上 31.1 55 1010.8
21 17:51 西 6 10km以上 33.9 41 1011
21 16:51 西 6 10km以上 34.4 37 1011.2
21 15:51 南西 8 10km以上 33.3 46 1011.3
21 14:51 西南西 8 10km以上 34.4 35 1011.4
21 13:51 西 6 10km以上 34.4 35 1011.7
21 12:51 北北西 6 10km以上 33.9 40 1012.2
21 11:51 西北西 4 10km以上 32.2 47 1012.6
21 10:51 5 10km以上 31.1 52 1013.1
21 09:51 北西 5 10km以上 30.6 53 1013.2
21 08:51 北西 5 10km以上 29.4 59 1013.3
21 07:51 北西 4 10km以上 28.3 65 1012.8
21 06:51 北西 3 10km以上 27.2 69 1012.4
21 05:51 北西 5 10km以上 26.1 72 1012.3
21 04:51 北西 2 10km以上 26.1 72 1011.9
21 03:51 北西 3 10km以上 26.7 69 1011.6
21 02:51 西 3 10km以上 26.7 71 1011.9
21 01:51 西 5 10km以上 26.7 74 1012.2
21 00:51 西 4 10km以上 26.7 74 1012
20 23:51 西 5 10km以上 27.2 69 1011.7
20 22:51 西 5 10km以上 27.8 67 1011.9
20 21:51 西北西 7 10km以上 28.3 70 1012
20 20:51 西 5 10km以上 32.2 50 1011.7
20 19:51 西南西 3 10km以上 29.4 72 1011.9
20 18:51 3 10km以上 28.9 80 1011.5
20 17:51 6 10km以上 29.4 77 1011.5
20 16:51 8 10km以上 30.6 72 1011.8
20 15:51 8 10km以上 31.1 68 1012.4
20 14:51 7 10km以上 32.2 64 1012.7
20 13:51 南南西 6 10km以上 34.4 46 1013.2
20 12:51 6 10km以上 33.9 54 1013.9
20 11:51 南南西 4 10km以上 32.8 57 1014.8
20 10:51 南南西 3 10km以上 31.7 57 1015.3
20 09:51 南西 2 10km以上 30.6 65 1015.3
20 08:51 南西 3 10km以上 28.3 79 1015.5
20 07:51 南西 3 10km以上 27.2 88 1015.4
20 06:51 南南西 2 10km以上 25.6 96 1014.9
20 05:51 南西 3 10km以上 25 96 1014.7
20 04:51 南西 3 10km以上 25 96 1014.6
20 03:51 南南西 2 10km以上 26.1 90 1014.7
20 02:51 北西 2 10km以上 27.8 77 1015.1
20 01:51 西 5 10km以上 27.8 79 1015.4
20 00:51 西南西 4 10km以上 27.2 85 1015.5
19 23:51 南西 4 10km以上 27.2 88 1015.6
19 22:51 南西 3 10km以上 27.2 85 1015.5
19 21:51 北北東 4 10km以上 26.7 87 1015.5
KJFK 212351Z 27012KT 10SM FEW070 FEW180 BKN260 32/19 A2986 RMK AO2 SLP110 T03220194 10350 20306 55002
KJFK 212251Z 22013KT 10SM FEW070 BKN260 31/21 A2985 RMK AO2 SLP108 T03110211
KJFK 212151Z 26012KT 10SM FEW070 BKN260 34/19 A2986 RMK AO2 SLP110 T03390189
KJFK 212051Z 27012KT 10SM FEW070 BKN270 34/18 A2986 RMK AO2 SLP112 T03440178 56005
KJFK 211951Z 22016KT 10SM FEW070 BKN270 33/20 A2987 RMK AO2 SLP113 T03330200
KJFK 211851Z 25015KT 10SM FEW065 BKN270 34/17 A2987 RMK AO2 SLP114 T03440167
KJFK 211751Z 28011KT 10SM FEW060 BKN350 34/17 A2988 RMK AO2 SLP117 T03440167 10344 20283 58014
KJFK 211651Z 33012KT 10SM FEW055 SCT350 34/18 A2989 RMK AO2 SLP122 T03390183
KJFK 211551Z 29008KT 10SM FEW050 FEW100 32/19 A2990 RMK AO2 SLP126 T03220194
KJFK 211451Z 35010KT 10SM FEW045 FEW100 31/20 A2992 RMK AO2 SLP131 T03110200 50002
KJFK 211351Z 32009KT 10SM FEW045 SCT100 31/20 A2992 RMK AO2 SLP132 T03060200
KJFK 211251Z 32010KT 10SM BKN095 BKN130 29/21 A2993 RMK AO2 SLP133 T02940206
KJFK 211151Z 31007KT 10SM SCT130 SCT250 28/21 A2991 RMK AO2 SLP128 T02830211 10283 20261 52009
KJFK 211051Z 32006KT 8SM FEW140 SCT250 27/21 A2990 RMK AO2 SLP124 T02720211
KJFK 210951Z 32009KT 10SM FEW055 SCT140 SCT250 26/21 A2989 RMK AO2 SLP123 T02610206
KJFK 210851Z 32003KT 10SM FEW060 BKN160 BKN260 26/21 A2988 RMK AO2 SLP119 T02610206 55003
KJFK 210751Z 32006KT 10SM FEW065 BKN260 27/21 A2987 RMK AO2 SLP116 T02670206
KJFK 210651Z 27006KT 10SM FEW065 BKN260 27/21 A2988 RMK AO2 SLP119 T02670211
KJFK 210551Z 26009KT 10SM BKN060 BKN250 27/22 A2989 RMK AO2 SLP122 60000 T02670217 10322 20267 53003
KJFK 210451Z 26008KT 10SM FEW090 SCT250 27/22 A2988 RMK AO2 SLP120 T02670217 403440250
KJFK 210351Z 26009KT 10SM FEW090 27/21 A2988 RMK AO2 SLP117 T02720211
KJFK 210251Z 26010KT 10SM SCT090 SCT250 28/21 A2988 RMK AO2 SLP119 60000 T02780211 53000
KJFK 210151Z 29013KT 10SM FEW060 FEW150 BKN190 BKN250 28/22 A2989 RMK AO2 RAB0053E29 SLP120 P0000 T02830222
KJFK 210051Z 26010KT 10SM FEW060 BKN160 BKN250 32/21 A2988 RMK AO2 LTG DSNT SW SLP117 OCNL LTGIC DSNT SW-W CB DSNT SW-W T03220206
KJFK 202351Z 25006KT 10SM FEW060 BKN170 BKN250 29/24 A2988 RMK AO2 SLP119 CB DSNT NW T02940239 10344 20283 53001
KJFK 202251Z 19006KT 10SM FEW060 SCT170 BKN250 29/25 A2987 RMK AO2 SLP115 T02890250
KJFK 202151Z 18011KT 10SM FEW060 FEW100 BKN250 29/25 A2987 RMK AO2 SLP115 T02940250
KJFK 202051Z 18015KT 10SM SCT060 BKN250 31/25 A2988 RMK AO2 SLP118 T03060250 58014
KJFK 201951Z 19016KT 10SM SCT055 BKN260 31/24 A2990 RMK AO2 SLP124 TCU DSNT N T03110244
KJFK 201851Z 18013KT 10SM SCT055 BKN260 32/24 A2991 RMK AO2 SLP127 TCU DSNT SW T03220244
KJFK 201751Z 20012KT 10SM SCT055 BKN270 34/21 A2992 RMK AO2 SLP132 T03440211 10344 20272 58021
KJFK 201651Z 19011KT 10SM FEW050 SCT080 BKN270 34/23 A2994 RMK AO2 SLP139 T03390233
KJFK 201551Z 20007KT 10SM FEW045 FEW070 BKN290 33/23 A2997 RMK AO2 SLP148 TCU DSNT NE T03280233
KJFK 201451Z 20005KT 10SM FEW042 BKN290 32/22 A2998 RMK AO2 SLP153 T03170222 58002
KJFK 201351Z 23004KT 9SM BKN310 31/23 A2998 RMK AO2 SLP153 T03060233
KJFK 201251Z 23006KT 8SM FEW100 BKN290 28/24 A2999 RMK AO2 SLP155 T02830244
KJFK 201151Z 22005KT 8SM FEW100 BKN270 27/25 A2999 RMK AO2 SLP154 T02720250 10283 20250 53008
KJFK 201051Z 20004KT 8SM FEW100 BKN270 26/25 A2997 RMK AO2 SLP149 T02560250
KJFK 200951Z 22005KT 9SM FEW100 SCT250 25/24 A2996 RMK AO2 SLP147 T02500244
KJFK 200851Z 22005KT 10SM SCT065 BKN110 BKN250 25/24 A2996 RMK AO2 SLP146 T02500244 56007
KJFK 200751Z 20004KT 10SM SCT060 BKN100 BKN250 26/24 A2997 RMK AO2 SLP147 T02610244
KJFK 200651Z 31003KT 10SM SCT055 SCT150 BKN250 28/23 A2998 RMK AO2 SLP151 T02780233
KJFK 200551Z 27009KT 10SM SCT160 SCT250 28/24 A2999 RMK AO2 SLP154 T02780239 10278 20261 58002
KJFK 200451Z 24008KT 10SM FEW070 SCT160 BKN250 27/24 A2999 RMK AO2 SLP155 T02720244 403280239
KJFK 200351Z 23008KT 10SM SCT060 BKN250 27/25 A2999 RMK AO2 SLP156 T02720250
KJFK 200251Z 22005KT 10SM SCT060 SCT250 27/24 A2999 RMK AO2 SLP155 T02720244 50009
KJFK 200151Z 03008KT 10SM SCT060 SCT080 SCT250 27/24 A2999 RMK AO2 SLP155 T02670244